sensor_id;sensor_type;location;lat;lon;timestamp;pressure;altitude;pressure_sealevel;temperature;humidity
54920;BME280;63804;53.120;8.764;2023-03-03T00:01:37;102615.84;;;1.39;77.43
54920;BME280;63804;53.120;8.764;2023-03-03T00:04:02;102620.31;;;1.34;78.01
54920;BME280;63804;53.120;8.764;2023-03-03T00:06:28;102614.28;;;1.27;78.60
54920;BME280;63804;53.120;8.764;2023-03-03T00:08:55;102621.91;;;1.42;78.48
54920;BME280;63804;53.120;8.764;2023-03-03T00:11:20;102623.56;;;1.51;77.97
54920;BME280;63804;53.120;8.764;2023-03-03T00:13:48;102607.22;;;1.34;78.48
54920;BME280;63804;53.120;8.764;2023-03-03T00:18:49;102597.69;;;1.28;78.63
54920;BME280;63804;53.120;8.764;2023-03-03T00:21:32;102601.78;;;1.46;78.52
54920;BME280;63804;53.120;8.764;2023-03-03T00:26:35;102616.63;;;1.47;78.48
54920;BME280;63804;53.120;8.764;2023-03-03T00:29:39;102613.03;;;1.56;78.13
54920;BME280;63804;53.120;8.764;2023-03-03T00:34:41;102611.16;;;1.62;78.13
54920;BME280;63804;53.120;8.764;2023-03-03T00:37:24;102612.09;;;1.58;78.31
54920;BME280;63804;53.120;8.764;2023-03-03T00:39:50;102612.00;;;1.64;77.96
54920;BME280;63804;53.120;8.764;2023-03-03T00:42:16;102619.13;;;1.56;78.46
54920;BME280;63804;53.120;8.764;2023-03-03T00:44:47;102608.53;;;1.62;78.37
54920;BME280;63804;53.120;8.764;2023-03-03T00:50:17;102608.72;;;1.50;79.19
54920;BME280;63804;53.120;8.764;2023-03-03T00:52:53;102610.72;;;1.31;79.89
54920;BME280;63804;53.120;8.764;2023-03-03T00:55:23;102609.00;;;1.30;80.09
54920;BME280;63804;53.120;8.764;2023-03-03T00:57:48;102615.03;;;1.37;79.57
54920;BME280;63804;53.120;8.764;2023-03-03T01:00:14;102617.72;;;1.32;79.72
54920;BME280;63804;53.120;8.764;2023-03-03T01:02:39;102614.31;;;1.26;80.99
54920;BME280;63804;53.120;8.764;2023-03-03T01:05:05;102614.09;;;1.39;79.80
54920;BME280;63804;53.120;8.764;2023-03-03T01:07:30;102616.72;;;1.41;79.75
54920;BME280;63804;53.120;8.764;2023-03-03T01:09:56;102616.88;;;1.27;80.48
54920;BME280;63804;53.120;8.764;2023-03-03T01:12:22;102612.41;;;1.35;80.42
54920;BME280;63804;53.120;8.764;2023-03-03T01:14:48;102610.53;;;1.45;79.99
54920;BME280;63804;53.120;8.764;2023-03-03T01:17:17;102603.47;;;1.50;79.82
54920;BME280;63804;53.120;8.764;2023-03-03T01:19:42;102598.16;;;1.56;79.43
54920;BME280;63804;53.120;8.764;2023-03-03T01:22:08;102602.69;;;1.45;79.93
54920;BME280;63804;53.120;8.764;2023-03-03T01:24:33;102608.81;;;1.44;80.03
54920;BME280;63804;53.120;8.764;2023-03-03T01:26:59;102602.66;;;1.48;80.23
54920;BME280;63804;53.120;8.764;2023-03-03T01:29:24;102604.31;;;1.55;79.52
54920;BME280;63804;53.120;8.764;2023-03-03T01:31:50;102610.31;;;1.60;79.20
54920;BME280;63804;53.120;8.764;2023-03-03T01:34:15;102605.13;;;1.59;79.38
54920;BME280;63804;53.120;8.764;2023-03-03T01:36:41;102595.63;;;1.50;79.27
54920;BME280;63804;53.120;8.764;2023-03-03T01:39:06;102591.13;;;1.60;78.87
54920;BME280;63804;53.120;8.764;2023-03-03T01:41:31;102584.06;;;1.66;78.81
54920;BME280;63804;53.120;8.764;2023-03-03T01:43:58;102586.09;;;1.46;79.39
54920;BME280;63804;53.120;8.764;2023-03-03T01:51:31;102581.81;;;1.40;79.71
54920;BME280;63804;53.120;8.764;2023-03-03T01:54:03;102583.66;;;1.34;79.88
54920;BME280;63804;53.120;8.764;2023-03-03T01:56:29;102578.38;;;1.35;79.83
54920;BME280;63804;53.120;8.764;2023-03-03T01:59:02;102574.97;;;1.30;79.75
54920;BME280;63804;53.120;8.764;2023-03-03T02:01:28;102561.13;;;1.22;79.90
54920;BME280;63804;53.120;8.764;2023-03-03T02:03:56;102562.06;;;1.16;80.21
54920;BME280;63804;53.120;8.764;2023-03-03T02:06:26;102565.47;;;1.25;80.13
54920;BME280;63804;53.120;8.764;2023-03-03T02:08:56;102574.25;;;1.21;80.21
54920;BME280;63804;53.120;8.764;2023-03-03T02:11:24;102565.38;;;1.28;80.20
54920;BME280;63804;53.120;8.764;2023-03-03T02:13:51;102574.09;;;1.30;80.00
54920;BME280;63804;53.120;8.764;2023-03-03T02:16:16;102579.66;;;1.07;80.59
54920;BME280;63804;53.120;8.764;2023-03-03T02:18:42;102578.84;;;1.02;81.31
54920;BME280;63804;53.120;8.764;2023-03-03T02:21:14;102574.13;;;1.27;80.51
54920;BME280;63804;53.120;8.764;2023-03-03T02:26:22;102573.91;;;1.42;79.87
54920;BME280;63804;53.120;8.764;2023-03-03T02:28:48;102577.38;;;1.46;79.82
54920;BME280;63804;53.120;8.764;2023-03-03T02:31:18;102572.16;;;1.42;79.72
54920;BME280;63804;53.120;8.764;2023-03-03T02:33:46;102570.50;;;1.37;80.14
54920;BME280;63804;53.120;8.764;2023-03-03T02:36:34;102568.84;;;1.33;80.69
54920;BME280;63804;53.120;8.764;2023-03-03T02:41:35;102570.53;;;1.35;80.65
54920;BME280;63804;53.120;8.764;2023-03-03T02:46:33;102572.16;;;1.44;80.27
54920;BME280;63804;53.120;8.764;2023-03-03T02:49:00;102571.25;;;1.45;80.07
54920;BME280;63804;53.120;8.764;2023-03-03T02:51:26;102574.72;;;1.47;79.97
54920;BME280;63804;53.120;8.764;2023-03-03T02:53:51;102571.13;;;1.54;79.62
54920;BME280;63804;53.120;8.764;2023-03-03T02:56:17;102562.31;;;1.58;79.56
54920;BME280;63804;53.120;8.764;2023-03-03T02:58:43;102571.06;;;1.59;79.01
54920;BME280;63804;53.120;8.764;2023-03-03T03:01:08;102576.44;;;1.50;79.50
54920;BME280;63804;53.120;8.764;2023-03-03T03:03:34;102563.34;;;1.50;79.58
54920;BME280;63804;53.120;8.764;2023-03-03T03:05:59;102571.06;;;1.57;79.33
54920;BME280;63804;53.120;8.764;2023-03-03T03:08:25;102561.56;;;1.52;79.13
54920;BME280;63804;53.120;8.764;2023-03-03T03:10:50;102553.84;;;1.44;79.72
54920;BME280;63804;53.120;8.764;2023-03-03T03:13:15;102559.88;;;1.48;79.64
54920;BME280;63804;53.120;8.764;2023-03-03T03:15:42;102561.66;;;1.46;79.75
54920;BME280;63804;53.120;8.764;2023-03-03T03:18:09;102561.66;;;1.46;80.07
54920;BME280;63804;53.120;8.764;2023-03-03T03:20:38;102567.63;;;1.55;79.58
54920;BME280;63804;53.120;8.764;2023-03-03T03:23:05;102567.66;;;1.52;79.51
54920;BME280;63804;53.120;8.764;2023-03-03T03:25:30;102573.84;;;1.48;79.72
54920;BME280;63804;53.120;8.764;2023-03-03T03:27:56;102573.06;;;1.41;80.12
54920;BME280;63804;53.120;8.764;2023-03-03T03:30:21;102577.41;;;1.44;79.78
54920;BME280;63804;53.120;8.764;2023-03-03T03:32:47;102576.34;;;1.54;79.65
54920;BME280;63804;53.120;8.764;2023-03-03T03:35:12;102579.78;;;1.59;79.11
54920;BME280;63804;53.120;8.764;2023-03-03T03:37:38;102577.28;;;1.50;79.69
54920;BME280;63804;53.120;8.764;2023-03-03T03:40:05;102572.94;;;1.49;79.56
54920;BME280;63804;53.120;8.764;2023-03-03T03:42:31;102575.44;;;1.57;79.77
54920;BME280;63804;53.120;8.764;2023-03-03T03:44:56;102570.28;;;1.51;79.83
54920;BME280;63804;53.120;8.764;2023-03-03T03:47:22;102570.38;;;1.46;80.06
54920;BME280;63804;53.120;8.764;2023-03-03T03:49:48;102573.03;;;1.43;80.25
54920;BME280;63804;53.120;8.764;2023-03-03T03:52:13;102580.78;;;1.51;79.74
54920;BME280;63804;53.120;8.764;2023-03-03T03:54:38;102579.91;;;1.52;79.97
54920;BME280;63804;53.120;8.764;2023-03-03T03:57:04;102582.44;;;1.56;79.47
54920;BME280;63804;53.120;8.764;2023-03-03T03:59:29;102586.78;;;1.59;79.35
54920;BME280;63804;53.120;8.764;2023-03-03T04:01:55;102585.75;;;1.69;79.07
54920;BME280;63804;53.120;8.764;2023-03-03T04:04:20;102585.56;;;1.80;78.75
54920;BME280;63804;53.120;8.764;2023-03-03T04:06:52;102584.72;;;1.79;78.51
54920;BME280;63804;53.120;8.764;2023-03-03T04:09:18;102580.50;;;1.71;78.69
54920;BME280;63804;53.120;8.764;2023-03-03T04:11:43;102590.97;;;1.71;78.80
54920;BME280;63804;53.120;8.764;2023-03-03T04:14:09;102596.25;;;1.67;78.89
54920;BME280;63804;53.120;8.764;2023-03-03T04:16:34;102589.09;;;1.77;78.58
54920;BME280;63804;53.120;8.764;2023-03-03T04:19:00;102581.22;;;1.79;78.64
54920;BME280;63804;53.120;8.764;2023-03-03T04:21:25;102576.00;;;1.79;78.66
54920;BME280;63804;53.120;8.764;2023-03-03T04:23:52;102577.69;;;1.81;78.76
54920;BME280;63804;53.120;8.764;2023-03-03T04:26:17;102571.69;;;1.73;78.77
54920;BME280;63804;53.120;8.764;2023-03-03T04:28:43;102569.94;;;1.74;79.13
54920;BME280;63804;53.120;8.764;2023-03-03T04:31:09;102572.59;;;1.72;79.02
54920;BME280;63804;53.120;8.764;2023-03-03T04:33:34;102580.53;;;1.67;79.46
54920;BME280;63804;53.120;8.764;2023-03-03T04:36:00;102575.19;;;1.74;79.38
54920;BME280;63804;53.120;8.764;2023-03-03T04:38:25;102581.44;;;1.66;79.50
54920;BME280;63804;53.120;8.764;2023-03-03T04:40:51;102574.63;;;1.53;80.08
54920;BME280;63804;53.120;8.764;2023-03-03T04:43:16;102572.75;;;1.61;80.20
54920;BME280;63804;53.120;8.764;2023-03-03T04:45:43;102570.13;;;1.63;80.00
54920;BME280;63804;53.120;8.764;2023-03-03T04:48:08;102563.09;;;1.65;79.56
54920;BME280;63804;53.120;8.764;2023-03-03T04:50:34;102564.03;;;1.61;80.22
54920;BME280;63804;53.120;8.764;2023-03-03T04:52:59;102563.84;;;1.73;80.20
54920;BME280;63804;53.120;8.764;2023-03-03T04:55:25;102561.47;;;1.59;80.47
54920;BME280;63804;53.120;8.764;2023-03-03T04:57:51;102552.81;;;1.53;80.84
54920;BME280;63804;53.120;8.764;2023-03-03T05:00:17;102555.41;;;1.54;80.96
54920;BME280;63804;53.120;8.764;2023-03-03T05:02:42;102551.84;;;1.58;80.95
54920;BME280;63804;53.120;8.764;2023-03-03T05:05:08;102543.34;;;1.42;81.67
54920;BME280;63804;53.120;8.764;2023-03-03T05:07:34;102548.53;;;1.47;81.96
54920;BME280;63804;53.120;8.764;2023-03-03T05:10:00;102552.63;;;1.65;81.57
54920;BME280;63804;53.120;8.764;2023-03-03T05:12:26;102550.75;;;1.73;81.09
54920;BME280;63804;53.120;8.764;2023-03-03T05:14:51;102544.75;;;1.66;81.11
54920;BME280;63804;53.120;8.764;2023-03-03T05:17:17;102548.31;;;1.61;81.67
54920;BME280;63804;53.120;8.764;2023-03-03T05:19:48;102535.25;;;1.59;82.00
54920;BME280;63804;53.120;8.764;2023-03-03T05:22:14;102540.34;;;1.69;81.66
54920;BME280;63804;53.120;8.764;2023-03-03T05:24:39;102540.38;;;1.67;81.63
54920;BME280;63804;53.120;8.764;2023-03-03T05:27:07;102542.19;;;1.63;81.99
54920;BME280;63804;53.120;8.764;2023-03-03T05:29:32;102546.53;;;1.64;81.96
54920;BME280;63804;53.120;8.764;2023-03-03T05:31:58;102550.00;;;1.66;82.35
54920;BME280;63804;53.120;8.764;2023-03-03T05:34:23;102553.41;;;1.72;81.92
54920;BME280;63804;53.120;8.764;2023-03-03T05:36:49;102549.06;;;1.71;81.56
54920;BME280;63804;53.120;8.764;2023-03-03T05:39:15;102542.00;;;1.73;81.66
54920;BME280;63804;53.120;8.764;2023-03-03T05:41:40;102543.81;;;1.71;82.06
54920;BME280;63804;53.120;8.764;2023-03-03T05:44:06;102552.50;;;1.74;81.83
54920;BME280;63804;53.120;8.764;2023-03-03T05:46:31;102552.41;;;1.77;81.71
54920;BME280;63804;53.120;8.764;2023-03-03T05:48:57;102562.91;;;1.77;81.94
54920;BME280;63804;53.120;8.764;2023-03-03T05:51:22;102560.16;;;1.85;81.78
54920;BME280;63804;53.120;8.764;2023-03-03T05:53:48;102564.53;;;1.84;81.56
54920;BME280;63804;53.120;8.764;2023-03-03T05:56:13;102564.44;;;1.89;81.16
54920;BME280;63804;53.120;8.764;2023-03-03T05:58:39;102569.72;;;1.87;81.69
54920;BME280;63804;53.120;8.764;2023-03-03T06:01:04;102569.66;;;1.92;81.63
54920;BME280;63804;53.120;8.764;2023-03-03T06:03:30;102574.84;;;1.95;81.18
54920;BME280;63804;53.120;8.764;2023-03-03T06:05:56;102584.56;;;1.90;81.61
54920;BME280;63804;53.120;8.764;2023-03-03T06:08:21;102576.03;;;1.76;81.86
54920;BME280;63804;53.120;8.764;2023-03-03T06:10:47;102582.00;;;1.84;81.98
54920;BME280;63804;53.120;8.764;2023-03-03T06:13:13;102590.69;;;1.87;81.94
54920;BME280;63804;53.120;8.764;2023-03-03T06:15:38;102585.38;;;1.94;81.25
54920;BME280;63804;53.120;8.764;2023-03-03T06:18:04;102594.06;;;1.96;81.51
54920;BME280;63804;53.120;8.764;2023-03-03T06:20:29;102594.22;;;1.86;81.57
54920;BME280;63804;53.120;8.764;2023-03-03T06:22:55;102594.22;;;1.85;81.85
54920;BME280;63804;53.120;8.764;2023-03-03T06:25:20;102597.78;;;1.82;82.00
54920;BME280;63804;53.120;8.764;2023-03-03T06:27:46;102602.97;;;1.85;82.23
54920;BME280;63804;53.120;8.764;2023-03-03T06:30:12;102600.09;;;2.01;81.50
54920;BME280;63804;53.120;8.764;2023-03-03T06:32:38;102608.69;;;2.09;81.05
54920;BME280;63804;53.120;8.764;2023-03-03T06:35:04;102605.00;;;2.19;81.04
54920;BME280;63804;53.120;8.764;2023-03-03T06:37:30;102611.19;;;2.15;80.78
54920;BME280;63804;53.120;8.764;2023-03-03T06:39:55;102608.75;;;2.04;81.13
54920;BME280;63804;53.120;8.764;2023-03-03T06:42:20;102608.00;;;1.98;81.16
54920;BME280;63804;53.120;8.764;2023-03-03T06:44:46;102606.38;;;1.89;81.42
54920;BME280;63804;53.120;8.764;2023-03-03T06:47:12;102603.59;;;2.01;81.27
54920;BME280;63804;53.120;8.764;2023-03-03T06:49:37;102606.00;;;2.12;80.44
54920;BME280;63804;53.120;8.764;2023-03-03T06:52:23;102606.75;;;2.20;80.31
54920;BME280;63804;53.120;8.764;2023-03-03T06:54:53;102611.06;;;2.24;79.86
54920;BME280;63804;53.120;8.764;2023-03-03T06:57:21;102611.06;;;2.24;80.07
54920;BME280;63804;53.120;8.764;2023-03-03T06:59:51;102619.78;;;2.25;80.26
54920;BME280;63804;53.120;8.764;2023-03-03T07:02:18;102627.75;;;2.19;80.60
54920;BME280;63804;53.120;8.764;2023-03-03T07:04:44;102623.31;;;2.22;80.33
54920;BME280;63804;53.120;8.764;2023-03-03T07:07:22;102627.53;;;2.31;79.95
54920;BME280;63804;53.120;8.764;2023-03-03T07:09:51;102634.44;;;2.35;79.75
54920;BME280;63804;53.120;8.764;2023-03-03T07:12:20;102639.78;;;2.32;79.76
54920;BME280;63804;53.120;8.764;2023-03-03T07:14:52;102634.41;;;2.38;79.41
54920;BME280;63804;53.120;8.764;2023-03-03T07:17:24;102635.34;;;2.34;79.45
54920;BME280;63804;53.120;8.764;2023-03-03T07:19:50;102640.56;;;2.37;79.58
54920;BME280;63804;53.120;8.764;2023-03-03T07:22:17;102641.41;;;2.37;79.57
54920;BME280;63804;53.120;8.764;2023-03-03T07:24:46;102645.88;;;2.32;79.71
54920;BME280;63804;53.120;8.764;2023-03-03T07:27:23;102641.53;;;2.30;79.13
54920;BME280;63804;53.120;8.764;2023-03-03T07:29:50;102644.91;;;2.38;79.10
54920;BME280;63804;53.120;8.764;2023-03-03T07:32:42;102638.59;;;2.48;78.96
54920;BME280;63804;53.120;8.764;2023-03-03T07:35:37;102641.81;;;2.64;78.29
54920;BME280;63804;53.120;8.764;2023-03-03T07:38:46;102644.25;;;2.75;77.64
54920;BME280;63804;53.120;8.764;2023-03-03T07:41:16;102649.44;;;2.78;77.38
54920;BME280;63804;53.120;8.764;2023-03-03T07:46:33;102639.81;;;2.78;77.03
54920;BME280;63804;53.120;8.764;2023-03-03T07:49:10;102631.03;;;2.79;76.58
54920;BME280;63804;53.120;8.764;2023-03-03T07:51:47;102628.69;;;2.64;76.60
54920;BME280;63804;53.120;8.764;2023-03-03T07:59:35;102628.78;;;2.59;77.46
54920;BME280;63804;53.120;8.764;2023-03-03T08:02:01;102627.66;;;2.73;76.92
54920;BME280;63804;53.120;8.764;2023-03-03T08:04:39;102626.59;;;2.83;76.69
54920;BME280;63804;53.120;8.764;2023-03-03T08:07:10;102618.81;;;2.78;76.03
54920;BME280;63804;53.120;8.764;2023-03-03T08:09:46;102616.13;;;2.81;76.71
54920;BME280;63804;53.120;8.764;2023-03-03T08:12:37;102620.06;;;3.02;75.75
54920;BME280;63804;53.120;8.764;2023-03-03T08:15:24;102614.47;;;3.19;75.11
54920;BME280;63804;53.120;8.764;2023-03-03T08:17:54;102618.50;;;3.35;74.62
54920;BME280;63804;53.120;8.764;2023-03-03T08:20:46;102618.28;;;3.46;73.78
54920;BME280;63804;53.120;8.764;2023-03-03T08:23:14;102618.63;;;3.29;74.58
54920;BME280;63804;53.120;8.764;2023-03-03T08:25:40;102630.34;;;3.13;74.87
54920;BME280;63804;53.120;8.764;2023-03-03T08:28:07;102625.16;;;3.11;75.20
54920;BME280;63804;53.120;8.764;2023-03-03T08:30:33;102623.19;;;3.21;75.18
54920;BME280;63804;53.120;8.764;2023-03-03T08:32:58;102617.13;;;3.19;75.10
54920;BME280;63804;53.120;8.764;2023-03-03T08:35:24;102620.66;;;3.15;75.49
54920;BME280;63804;53.120;8.764;2023-03-03T08:37:50;102620.59;;;3.20;75.27
54920;BME280;63804;53.120;8.764;2023-03-03T08:40:16;102623.16;;;3.23;75.46
54920;BME280;63804;53.120;8.764;2023-03-03T08:42:41;102618.72;;;3.25;75.36
54920;BME280;63804;53.120;8.764;2023-03-03T08:45:07;102623.97;;;3.25;75.58
54920;BME280;63804;53.120;8.764;2023-03-03T08:47:32;102617.97;;;3.20;75.38
54920;BME280;63804;53.120;8.764;2023-03-03T08:49:58;102619.78;;;3.16;75.39
54920;BME280;63804;53.120;8.764;2023-03-03T08:52:23;102619.72;;;3.19;75.18
54920;BME280;63804;53.120;8.764;2023-03-03T08:54:49;102635.19;;;3.33;74.85
54920;BME280;63804;53.120;8.764;2023-03-03T08:57:14;102632.59;;;3.70;73.66
54920;BME280;63804;53.120;8.764;2023-03-03T08:59:40;102633.88;;;3.93;72.93
54920;BME280;63804;53.120;8.764;2023-03-03T09:02:06;102630.88;;;4.06;72.65
54920;BME280;63804;53.120;8.764;2023-03-03T09:04:32;102634.97;;;4.20;72.18
54920;BME280;63804;53.120;8.764;2023-03-03T09:06:58;102634.03;;;4.22;71.70
54920;BME280;63804;53.120;8.764;2023-03-03T09:09:23;102632.31;;;4.20;72.14
54920;BME280;63804;53.120;8.764;2023-03-03T09:11:49;102641.91;;;4.22;71.89
54920;BME280;63804;53.120;8.764;2023-03-03T09:14:16;102635.88;;;4.19;72.13
54920;BME280;63804;53.120;8.764;2023-03-03T09:16:53;102639.19;;;4.25;71.73
54920;BME280;63804;53.120;8.764;2023-03-03T09:19:30;102639.69;;;4.41;71.19
54920;BME280;63804;53.120;8.764;2023-03-03T09:22:21;102648.47;;;4.40;71.09
54920;BME280;63804;53.120;8.764;2023-03-03T09:24:48;102646.88;;;4.34;71.47
54920;BME280;63804;53.120;8.764;2023-03-03T09:27:18;102640.44;;;4.45;71.40
54920;BME280;63804;53.120;8.764;2023-03-03T09:29:45;102632.25;;;4.57;70.77
54920;BME280;63804;53.120;8.764;2023-03-03T09:32:33;102630.13;;;4.70;70.52
54920;BME280;63804;53.120;8.764;2023-03-03T09:35:00;102631.78;;;4.74;70.35
54920;BME280;63804;53.120;8.764;2023-03-03T09:37:47;102635.13;;;4.79;70.38
54920;BME280;63804;53.120;8.764;2023-03-03T09:43:17;102629.22;;;4.71;70.19
54920;BME280;63804;53.120;8.764;2023-03-03T09:48:38;102629.78;;;4.82;70.52
54920;BME280;63804;53.120;8.764;2023-03-03T09:51:23;102634.13;;;4.84;70.35
54920;BME280;63804;53.120;8.764;2023-03-03T09:57:12;102631.84;;;5.03;69.60
54920;BME280;63804;53.120;8.764;2023-03-03T10:13:43;102626.44;;;5.38;68.05
54920;BME280;63804;53.120;8.764;2023-03-03T10:16:33;102621.25;;;5.35;67.88
54920;BME280;63804;53.120;8.764;2023-03-03T10:19:37;102628.75;;;5.48;67.04
54920;BME280;63804;53.120;8.764;2023-03-03T10:24:54;102627.59;;;5.29;68.19
54920;BME280;63804;53.120;8.764;2023-03-03T10:33:51;102638.25;;;5.24;67.30
54920;BME280;63804;53.120;8.764;2023-03-03T10:39:31;102641.25;;;5.42;67.68
54920;BME280;63804;53.120;8.764;2023-03-03T10:50:16;102638.69;;;5.68;66.29
54920;BME280;63804;53.120;8.764;2023-03-03T10:55:41;102639.47;;;5.70;66.42
54920;BME280;63804;53.120;8.764;2023-03-03T10:58:44;102638.44;;;5.76;65.39
54920;BME280;63804;53.120;8.764;2023-03-03T11:01:12;102633.03;;;6.07;65.60
54920;BME280;63804;53.120;8.764;2023-03-03T11:04:31;102640.19;;;6.03;62.76
54920;BME280;63804;53.120;8.764;2023-03-03T11:10:00;102624.28;;;6.05;63.44
54920;BME280;63804;53.120;8.764;2023-03-03T11:15:34;102621.59;;;6.60;59.69
54920;BME280;63804;53.120;8.764;2023-03-03T11:18:45;102617.03;;;6.40;59.87
54920;BME280;63804;53.120;8.764;2023-03-03T11:31:48;102613.59;;;6.36;61.30
54920;BME280;63804;53.120;8.764;2023-03-03T11:37:16;102613.22;;;6.20;60.41
54920;BME280;63804;53.120;8.764;2023-03-03T11:39:48;102607.16;;;6.18;62.06
54920;BME280;63804;53.120;8.764;2023-03-03T11:45:16;102595.53;;;5.97;62.12
54920;BME280;63804;53.120;8.764;2023-03-03T11:47:51;102598.56;;;5.85;61.51
54920;BME280;63804;53.120;8.764;2023-03-03T11:50:44;102595.47;;;5.72;62.20
54920;BME280;63804;53.120;8.764;2023-03-03T11:53:25;102589.28;;;5.73;63.12
54920;BME280;63804;53.120;8.764;2023-03-03T11:55:57;102594.91;;;5.63;62.93
54920;BME280;63804;53.120;8.764;2023-03-03T11:58:30;102587.63;;;5.71;62.92
54920;BME280;63804;53.120;8.764;2023-03-03T12:01:29;102588.44;;;5.73;62.35
54920;BME280;63804;53.120;8.764;2023-03-03T12:04:03;102585.84;;;5.71;62.96
54920;BME280;63804;53.120;8.764;2023-03-03T12:06:37;102584.75;;;5.78;62.30
54920;BME280;63804;53.120;8.764;2023-03-03T12:11:48;102582.84;;;5.82;62.89
54920;BME280;63804;53.120;8.764;2023-03-03T12:19:55;102582.22;;;5.74;62.69
54920;BME280;63804;53.120;8.764;2023-03-03T12:22:31;102577.38;;;5.88;61.54
54920;BME280;63804;53.120;8.764;2023-03-03T12:25:17;102573.13;;;5.84;60.39
54920;BME280;63804;53.120;8.764;2023-03-03T12:27:59;102572.34;;;5.80;60.11
54920;BME280;63804;53.120;8.764;2023-03-03T12:41:37;102569.47;;;5.88;59.50
54920;BME280;63804;53.120;8.764;2023-03-03T12:44:17;102563.41;;;5.86;59.75
54920;BME280;63804;53.120;8.764;2023-03-03T12:49:30;102561.38;;;5.93;59.45
54920;BME280;63804;53.120;8.764;2023-03-03T12:52:22;102556.63;;;5.77;58.79
54920;BME280;63804;53.120;8.764;2023-03-03T13:03:32;102544.78;;;5.64;60.94
54920;BME280;63804;53.120;8.764;2023-03-03T13:17:39;102521.25;;;6.10;56.84
54920;BME280;63804;53.120;8.764;2023-03-03T13:20:38;102526.13;;;6.20;57.09
54920;BME280;63804;53.120;8.764;2023-03-03T13:25:49;102519.41;;;6.12;58.34
54920;BME280;63804;53.120;8.764;2023-03-03T13:28:24;102521.38;;;6.06;58.64
54920;BME280;63804;53.120;8.764;2023-03-03T13:33:39;102523.06;;;5.82;60.11
54920;BME280;63804;53.120;8.764;2023-03-03T13:36:12;102519.94;;;5.71;60.32
54920;BME280;63804;53.120;8.764;2023-03-03T13:38:48;102523.69;;;5.64;61.19
54920;BME280;63804;53.120;8.764;2023-03-03T13:43:53;102515.66;;;5.67;61.56
54920;BME280;63804;53.120;8.764;2023-03-03T13:46:46;102514.91;;;5.64;60.42
54920;BME280;63804;53.120;8.764;2023-03-03T13:52:05;102505.50;;;5.81;60.40
54920;BME280;63804;53.120;8.764;2023-03-03T13:55:06;102512.13;;;5.68;59.78
54920;BME280;63804;53.120;8.764;2023-03-03T14:00:20;102511.34;;;5.65;59.00
54920;BME280;63804;53.120;8.764;2023-03-03T14:05:50;102495.22;;;5.74;58.98
54920;BME280;63804;53.120;8.764;2023-03-03T14:08:22;102490.09;;;5.69;58.76
54920;BME280;63804;53.120;8.764;2023-03-03T14:19:23;102477.25;;;5.85;58.36
54920;BME280;63804;53.120;8.764;2023-03-03T14:24:22;102468.06;;;5.72;59.96
54920;BME280;63804;53.120;8.764;2023-03-03T14:26:53;102472.47;;;5.71;60.31
54920;BME280;63804;53.120;8.764;2023-03-03T14:31:51;102471.44;;;5.75;60.31
54920;BME280;63804;53.120;8.764;2023-03-03T14:34:34;102471.38;;;5.77;59.34
54920;BME280;63804;53.120;8.764;2023-03-03T14:37:28;102461.78;;;5.74;58.28
54920;BME280;63804;53.120;8.764;2023-03-03T14:40:29;102454.44;;;5.84;58.04
54920;BME280;63804;53.120;8.764;2023-03-03T14:42:56;102456.13;;;5.87;58.49
54920;BME280;63804;53.120;8.764;2023-03-03T14:45:33;102453.47;;;5.87;57.90
54920;BME280;63804;53.120;8.764;2023-03-03T14:48:16;102455.34;;;5.83;57.88
54920;BME280;63804;53.120;8.764;2023-03-03T14:53:41;102447.75;;;5.74;58.12
54920;BME280;63804;53.120;8.764;2023-03-03T14:56:27;102445.25;;;5.71;58.59
54920;BME280;63804;53.120;8.764;2023-03-03T14:59:20;102440.94;;;5.68;58.94
54920;BME280;63804;53.120;8.764;2023-03-03T15:01:46;102442.38;;;5.77;59.34
54920;BME280;63804;53.120;8.764;2023-03-03T15:06:45;102436.25;;;5.76;59.57
54920;BME280;63804;53.120;8.764;2023-03-03T15:09:31;102435.47;;;5.73;59.46
54920;BME280;63804;53.120;8.764;2023-03-03T15:12:00;102426.03;;;5.67;60.14
54920;BME280;63804;53.120;8.764;2023-03-03T15:14:41;102430.38;;;5.68;59.94
54920;BME280;63804;53.120;8.764;2023-03-03T15:17:32;102425.03;;;5.70;60.43
54920;BME280;63804;53.120;8.764;2023-03-03T15:22:49;102430.66;;;5.59;60.88
54920;BME280;63804;53.120;8.764;2023-03-03T15:25:27;102436.00;;;5.57;61.35
54920;BME280;63804;53.120;8.764;2023-03-03T15:36:45;102416.00;;;5.52;62.47
54920;BME280;63804;53.120;8.764;2023-03-03T15:39:20;102412.38;;;5.54;62.69
54920;BME280;63804;53.120;8.764;2023-03-03T15:42:03;102404.75;;;5.47;62.54
54920;BME280;63804;53.120;8.764;2023-03-03T15:50:06;102408.50;;;5.40;62.71
54920;BME280;63804;53.120;8.764;2023-03-03T16:03:42;102403.09;;;5.44;62.22
54920;BME280;63804;53.120;8.764;2023-03-03T16:06:18;102391.56;;;5.47;62.10
54920;BME280;63804;53.120;8.764;2023-03-03T16:22:52;102386.06;;;5.28;60.25
54920;BME280;63804;53.120;8.764;2023-03-03T16:25:39;102391.38;;;5.26;60.47
54920;BME280;63804;53.120;8.764;2023-03-03T16:28:18;102388.94;;;5.20;60.69
54920;BME280;63804;53.120;8.764;2023-03-03T16:33:31;102395.78;;;5.26;60.49
54920;BME280;63804;53.120;8.764;2023-03-03T16:38:56;102402.19;;;5.19;60.48
54920;BME280;63804;53.120;8.764;2023-03-03T16:46:40;102404.81;;;5.19;60.90
54920;BME280;63804;53.120;8.764;2023-03-03T16:49:38;102395.22;;;5.16;60.94
54920;BME280;63804;53.120;8.764;2023-03-03T16:52:14;102397.81;;;5.18;61.33
54920;BME280;63804;53.120;8.764;2023-03-03T17:00:26;102400.50;;;5.16;61.52
54920;BME280;63804;53.120;8.764;2023-03-03T17:06:17;102406.63;;;5.17;62.23
54920;BME280;63804;53.120;8.764;2023-03-03T17:11:45;102408.47;;;5.15;62.38
54920;BME280;63804;53.120;8.764;2023-03-03T17:14:34;102404.28;;;5.07;61.87
54920;BME280;63804;53.120;8.764;2023-03-03T17:25:22;102408.56;;;5.12;61.45
54920;BME280;63804;53.120;8.764;2023-03-03T17:30:34;102417.63;;;5.03;62.50
54920;BME280;63804;53.120;8.764;2023-03-03T17:38:21;102426.91;;;4.87;63.05
54920;BME280;63804;53.120;8.764;2023-03-03T17:44:23;102435.81;;;4.82;62.52